Time,TemperatureF,DewpointF,PressureIn,WindDirection,WindDirectionDegrees,WindSpeedMPH,WindSpeedGustMPH,Humidity,HourlyPrecipIn,Conditions,Clouds,dailyrainin,SoftwareType,DateUTC
2013-01-10 00:02:00,37.0,10.0,30.04,WSW,238,8.0,15.0,32,0.00,,,0.00,,2013-01-10 07:02:00,
2013-01-10 00:12:00,37.0,10.0,30.04,WSW,238,8.0,15.0,32,0.00,,,0.00,,2013-01-10 07:12:00,
2013-01-10 00:22:00,37.0,9.0,30.02,SW,228,14.0,22.0,31,0.00,,,0.00,,2013-01-10 07:22:00,
2013-01-10 00:32:00,37.0,9.0,30.02,WSW,254,13.0,21.0,31,0.00,,,0.00,,2013-01-10 07:32:00,
2013-01-10 00:42:00,37.0,9.0,30.02,WSW,254,13.0,21.0,31,0.00,,,0.00,,2013-01-10 07:42:00,
2013-01-10 00:52:00,35.0,9.0,30.01,West,279,4.0,10.0,33,0.00,,,0.00,,2013-01-10 07:52:00,
2013-01-10 01:01:00,33.0,8.0,30.00,West,259,4.0,6.0,35,0.00,,,0.00,,2013-01-10 08:01:00,
2013-01-10 01:11:00,33.0,8.0,30.00,West,259,4.0,6.0,35,0.00,,,0.00,,2013-01-10 08:11:00,
2013-01-10 01:22:00,34.0,9.0,29.98,WNW,301,7.0,13.0,35,0.00,,,0.00,,2013-01-10 08:22:00,
2013-01-10 01:32:00,35.0,9.0,29.98,West,274,9.0,14.0,34,0.00,,,0.00,,2013-01-10 08:32:00,
2013-01-10 01:42:00,35.0,9.0,29.98,West,274,9.0,14.0,34,0.00,,,0.00,,2013-01-10 08:42:00,
2013-01-10 01:53:00,35.0,8.0,29.98,West,268,8.0,13.0,32,0.00,,,0.00,,2013-01-10 08:53:00,
2013-01-10 02:02:00,35.0,8.0,29.98,SW,217,7.0,12.0,32,0.00,,,0.00,,2013-01-10 09:02:00,
2013-01-10 02:12:00,35.0,8.0,29.98,SW,217,7.0,12.0,32,0.00,,,0.00,,2013-01-10 09:12:00,
2013-01-10 02:22:00,35.0,9.0,29.98,WSW,253,5.0,11.0,33,0.00,,,0.00,,2013-01-10 09:22:00,
2013-01-10 02:32:00,35.0,8.0,29.98,WSW,245,4.0,7.0,32,0.00,,,0.00,,2013-01-10 09:32:00,
2013-01-10 02:42:00,35.0,8.0,29.98,WSW,245,4.0,7.0,32,0.00,,,0.00,,2013-01-10 09:42:00,
2013-01-10 02:52:00,33.0,8.0,29.97,West,276,5.0,9.0,34,0.00,,,0.00,,2013-01-10 09:52:00,
2013-01-10 03:02:00,33.0,8.0,29.96,West,271,4.0,6.0,35,0.00,,,0.00,,2013-01-10 10:02:00,
2013-01-10 03:12:00,33.0,8.0,29.96,West,271,4.0,6.0,35,0.00,,,0.00,,2013-01-10 10:12:00,
2013-01-10 03:22:00,34.0,8.0,29.95,WNW,295,3.0,4.0,33,0.00,,,0.00,,2013-01-10 10:22:00,
2013-01-10 03:32:00,34.0,7.0,29.93,WNW,299,3.0,8.0,32,0.00,,,0.00,,2013-01-10 10:32:00,
2013-01-10 03:42:00,34.0,7.0,29.93,WNW,299,3.0,8.0,32,0.00,,,0.00,,2013-01-10 10:42:00,
2013-01-10 03:52:00,31.0,7.0,29.94,West,267,0.0,5.0,36,0.00,,,0.00,,2013-01-10 10:52:00,
2013-01-10 04:02:00,32.0,6.0,29.94,SSW,200,4.0,7.0,32,0.00,,,0.00,,2013-01-10 11:02:00,
2013-01-10 04:12:00,32.0,6.0,29.94,SSW,200,4.0,7.0,32,0.00,,,0.00,,2013-01-10 11:12:00,
2013-01-10 04:22:00,32.0,7.0,29.93,South,169,0.0,1.0,34,0.00,,,0.00,,2013-01-10 11:22:00,
2013-01-10 04:32:00,33.0,6.0,29.92,South,169,0.0,0.0,31,0.00,,,0.00,,2013-01-10 11:32:00,
2013-01-10 04:42:00,33.0,6.0,29.92,South,169,0.0,0.0,31,0.00,,,0.00,,2013-01-10 11:42:00,
2013-01-10 04:53:00,32.0,6.0,29.91,SW,236,0.0,4.0,33,0.00,,,0.00,,2013-01-10 11:53:00,
2013-01-10 05:02:00,30.0,6.0,29.89,South,170,0.0,5.0,36,0.00,,,0.00,,2013-01-10 12:02:00,
2013-01-10 05:12:00,30.0,6.0,29.89,South,170,0.0,5.0,36,0.00,,,0.00,,2013-01-10 12:12:00,
2013-01-10 05:22:00,29.0,6.0,29.88,SSW,196,0.0,5.0,37,0.00,,,0.00,,2013-01-10 12:22:00,
2013-01-10 05:32:00,30.0,7.0,29.89,South,173,2.0,5.0,37,0.00,,,0.00,,2013-01-10 12:32:00,
2013-01-10 05:42:00,30.0,7.0,29.89,South,173,2.0,5.0,37,0.00,,,0.00,,2013-01-10 12:42:00,
2013-01-10 05:53:00,36.0,8.0,29.88,SW,227,10.0,13.0,30,0.00,,,0.00,,2013-01-10 12:53:00,
2013-01-10 06:02:00,37.0,7.0,29.87,West,261,10.0,15.0,28,0.00,,,0.00,,2013-01-10 13:02:00,
2013-01-10 06:12:00,37.0,7.0,29.87,West,261,10.0,15.0,28,0.00,,,0.00,,2013-01-10 13:12:00,
2013-01-10 06:22:00,37.0,7.0,29.86,SW,222,7.0,14.0,28,0.00,,,0.00,,2013-01-10 13:22:00,
2013-01-10 06:32:00,36.0,7.0,29.86,SW,233,8.0,15.0,29,0.00,,,0.00,,2013-01-10 13:32:00,
2013-01-10 06:42:00,36.0,7.0,29.86,SW,233,8.0,15.0,29,0.00,,,0.00,,2013-01-10 13:42:00,
2013-01-10 06:53:00,36.0,7.0,29.86,WSW,245,9.0,15.0,29,0.00,,,0.00,,2013-01-10 13:53:00,
2013-01-10 07:02:00,36.0,6.0,29.85,WSW,250,8.0,16.0,28,0.00,,,0.00,,2013-01-10 14:02:00,
2013-01-10 07:12:00,36.0,6.0,29.85,WSW,250,8.0,16.0,28,0.00,,,0.00,,2013-01-10 14:12:00,
2013-01-10 07:22:00,37.0,8.0,29.85,WSW,249,8.0,20.0,29,0.00,,,0.00,,2013-01-10 14:22:00,
2013-01-10 07:32:00,36.0,8.0,29.83,SW,236,12.0,19.0,30,0.00,,,0.00,,2013-01-10 14:32:00,
2013-01-10 07:43:00,36.0,8.0,29.83,SW,236,12.0,19.0,30,0.00,,,0.00,,2013-01-10 14:43:00,
2013-01-10 07:53:00,36.0,8.0,29.83,SW,225,14.0,22.0,30,0.00,,,0.00,,2013-01-10 14:53:00,
2013-01-10 08:03:00,35.0,7.0,29.83,SW,227,13.0,24.0,30,0.00,,,0.00,,2013-01-10 15:03:00,
2013-01-10 08:12:00,35.0,7.0,29.83,SW,227,13.0,24.0,30,0.00,,,0.00,,2013-01-10 15:12:00,
2013-01-10 08:22:00,36.0,7.0,29.83,WSW,240,14.0,21.0,29,0.00,,,0.00,,2013-01-10 15:22:00,
2013-01-10 08:32:00,36.0,7.0,29.82,SW,219,16.0,25.0,29,0.00,,,0.00,,2013-01-10 15:32:00,
2013-01-10 08:43:00,36.0,7.0,29.82,SW,219,16.0,25.0,29,0.00,,,0.00,,2013-01-10 15:43:00,
2013-01-10 08:53:00,38.0,7.0,29.82,West,267,12.0,19.0,27,0.00,,,0.00,,2013-01-10 15:53:00,
2013-01-10 09:02:00,38.0,6.0,29.82,WSW,248,8.0,14.0,26,0.00,,,0.00,,2013-01-10 16:02:00,
2013-01-10 09:12:00,38.0,6.0,29.82,WSW,248,8.0,14.0,26,0.00,,,0.00,,2013-01-10 16:12:00,
2013-01-10 09:23:00,37.0,6.0,29.83,WSW,243,9.0,19.0,27,0.00,,,0.00,,2013-01-10 16:23:00,
2013-01-10 09:33:00,37.0,7.0,29.83,South,190,8.0,15.0,28,0.00,,,0.00,,2013-01-10 16:33:00,
2013-01-10 09:43:00,37.0,7.0,29.83,South,190,8.0,15.0,28,0.00,,,0.00,,2013-01-10 16:43:00,
2013-01-10 09:53:00,36.0,7.0,29.82,SW,227,6.0,11.0,29,0.00,,,0.00,,2013-01-10 16:53:00,
2013-01-10 10:03:00,37.0,7.0,29.83,SSW,208,10.0,15.0,28,0.00,,,0.00,,2013-01-10 17:03:00,
2013-01-10 10:12:00,37.0,7.0,29.83,SSW,208,10.0,15.0,28,0.00,,,0.00,,2013-01-10 17:12:00,
2013-01-10 10:22:00,37.0,8.0,29.82,SSW,211,9.0,13.0,30,0.00,,,0.00,,2013-01-10 17:22:00,
2013-01-10 10:33:00,38.0,9.0,29.81,WSW,256,9.0,18.0,29,0.00,,,0.00,,2013-01-10 17:33:00,
2013-01-10 10:42:00,38.0,9.0,29.81,WSW,256,9.0,18.0,29,0.00,,,0.00,,2013-01-10 17:42:00,
2013-01-10 10:53:00,38.0,8.0,29.80,WNW,284,9.0,13.0,28,0.00,,,0.00,,2013-01-10 17:53:00,
2013-01-10 11:03:00,39.0,9.0,29.80,WNW,287,10.0,17.0,28,0.00,,,0.00,,2013-01-10 18:03:00,
2013-01-10 11:12:00,39.0,9.0,29.80,SW,232,5.0,13.0,28,0.00,,,0.00,,2013-01-10 18:12:00,
2013-01-10 11:23:00,39.0,9.0,29.80,SW,232,5.0,13.0,28,0.00,,,0.00,,2013-01-10 18:23:00,
2013-01-10 11:33:00,40.0,10.0,29.78,SE,130,0.0,8.0,28,0.00,,,0.00,,2013-01-10 18:33:00,
2013-01-10 11:43:00,41.0,10.0,29.75,SE,130,0.0,1.0,27,0.00,,,0.00,,2013-01-10 18:43:00,
2013-01-10 11:53:00,41.0,10.0,29.75,SE,130,0.0,1.0,27,0.00,,,0.00,,2013-01-10 18:53:00,
2013-01-10 12:02:00,42.0,9.0,29.72,SSW,193,11.0,21.0,25,0.00,,,0.00,,2013-01-10 19:02:00,
2013-01-10 12:12:00,43.0,9.0,29.70,South,175,11.0,21.0,24,0.00,,,0.00,,2013-01-10 19:12:00,
2013-01-10 12:23:00,43.0,9.0,29.70,South,175,11.0,21.0,24,0.00,,,0.00,,2013-01-10 19:23:00,
2013-01-10 12:32:00,43.0,10.0,29.70,SSW,206,9.0,20.0,25,0.00,,,0.00,,2013-01-10 19:32:00,
2013-01-10 12:43:00,43.0,10.0,29.70,SSW,206,9.0,20.0,25,0.00,,,0.00,,2013-01-10 19:43:00,
2013-01-10 12:53:00,44.0,9.0,29.67,SSE,168,16.0,20.0,23,0.00,,,0.00,,2013-01-10 19:53:00,
2013-01-10 13:02:00,44.0,9.0,29.66,South,180,17.0,24.0,23,0.00,,,0.00,,2013-01-10 20:02:00,
2013-01-10 13:12:00,45.0,9.0,29.66,WSW,238,16.0,26.0,23,0.00,,,0.00,,2013-01-10 20:12:00,
2013-01-10 13:23:00,45.0,9.0,29.66,WSW,238,16.0,26.0,23,0.00,,,0.00,,2013-01-10 20:23:00,
2013-01-10 13:33:00,45.0,9.0,29.66,South,190,17.0,28.0,23,0.00,,,0.00,,2013-01-10 20:33:00,
2013-01-10 13:42:00,45.0,9.0,29.66,South,190,17.0,28.0,23,0.00,,,0.00,,2013-01-10 20:42:00,
2013-01-10 13:53:00,44.0,11.0,29.66,South,178,9.0,20.0,26,0.00,,,0.00,,2013-01-10 20:53:00,
2013-01-10 14:03:00,44.0,10.0,29.66,South,182,11.0,19.0,25,0.00,,,0.00,,2013-01-10 21:03:00,
2013-01-10 14:12:00,42.0,10.0,29.67,SSW,206,11.0,22.0,26,0.00,,,0.00,,2013-01-10 21:12:00,
2013-01-10 14:23:00,42.0,10.0,29.67,SSW,206,11.0,22.0,26,0.00,,,0.00,,2013-01-10 21:23:00,
2013-01-10 14:33:00,42.0,11.0,29.67,SSW,202,6.0,18.0,28,0.00,,,0.00,,2013-01-10 21:33:00,
2013-01-10 14:42:00,42.0,11.0,29.67,SSW,202,6.0,18.0,28,0.00,,,0.00,,2013-01-10 21:42:00,
2013-01-10 14:53:00,42.0,10.0,29.67,SW,218,4.0,14.0,27,0.00,,,0.00,,2013-01-10 21:53:00,
2013-01-10 15:03:00,42.0,11.0,29.66,SW,216,7.0,13.0,28,0.00,,,0.00,,2013-01-10 22:03:00,
2013-01-10 15:12:00,42.0,10.0,29.66,SSW,208,9.0,16.0,26,0.00,,,0.00,,2013-01-10 22:12:00,
2013-01-10 15:25:00,42.0,10.0,29.66,SSW,208,9.0,16.0,26,0.00,,,0.00,,2013-01-10 22:25:00,
2013-01-10 15:32:00,42.0,10.0,29.66,SSW,205,10.0,18.0,26,0.00,,,0.00,,2013-01-10 22:32:00,
2013-01-10 15:43:00,42.0,10.0,29.66,SSW,205,10.0,18.0,26,0.00,,,0.00,,2013-01-10 22:43:00,
2013-01-10 16:02:00,40.0,9.0,29.64,SW,227,12.0,21.0,27,0.00,,,0.00,,2013-01-10 23:02:00,
2013-01-10 16:12:00,40.0,10.0,29.63,SW,227,12.0,17.0,28,0.00,,,0.00,,2013-01-10 23:12:00,
2013-01-10 16:22:00,40.0,10.0,29.63,SW,227,12.0,17.0,28,0.00,,,0.00,,2013-01-10 23:22:00,
2013-01-10 16:33:00,39.0,9.0,29.64,SSW,209,10.0,18.0,29,0.00,,,0.00,,2013-01-10 23:33:00,
2013-01-10 16:43:00,39.0,9.0,29.64,SSW,209,10.0,18.0,29,0.00,,,0.00,,2013-01-10 23:43:00,
2013-01-10 16:53:00,38.0,9.0,29.63,SW,225,4.0,15.0,29,0.00,,,0.00,,2013-01-10 23:53:00,
2013-01-10 17:02:00,37.0,10.0,29.62,WSW,248,4.0,14.0,32,0.00,,,0.00,,2013-01-11 00:02:00,
2013-01-10 17:12:00,36.0,10.0,29.61,WSW,250,7.0,10.0,34,0.00,,,0.00,,2013-01-11 00:12:00,
2013-01-10 17:23:00,36.0,10.0,29.61,WSW,250,7.0,10.0,34,0.00,,,0.00,,2013-01-11 00:23:00,
2013-01-10 17:33:00,36.0,12.0,29.60,SW,236,8.0,14.0,37,0.00,,,0.00,,2013-01-11 00:33:00,
2013-01-10 17:42:00,36.0,12.0,29.60,SW,236,8.0,14.0,37,0.00,,,0.00,,2013-01-11 00:42:00,
2013-01-10 17:53:00,36.0,13.0,29.59,SW,235,7.0,16.0,39,0.00,,,0.00,,2013-01-11 00:53:00,
2013-01-10 18:03:00,36.0,15.0,29.58,SW,233,12.0,19.0,41,0.00,,,0.00,,2013-01-11 01:03:00,
2013-01-10 18:12:00,36.0,14.0,29.58,SSW,211,11.0,23.0,40,0.00,,,0.00,,2013-01-11 01:12:00,
2013-01-10 18:22:00,36.0,14.0,29.58,SSW,211,11.0,23.0,40,0.00,,,0.00,,2013-01-11 01:22:00,
2013-01-10 18:33:00,36.0,15.0,29.57,SSW,202,14.0,23.0,41,0.00,,,0.00,,2013-01-11 01:33:00,
2013-01-10 18:43:00,36.0,15.0,29.57,SSW,202,14.0,23.0,41,0.00,,,0.00,,2013-01-11 01:43:00,
2013-01-10 18:53:00,36.0,15.0,29.57,SSW,211,13.0,30.0,41,0.00,,,0.00,,2013-01-11 01:53:00,
2013-01-10 19:02:00,36.0,15.0,29.56,SW,218,15.0,27.0,42,0.00,,,0.00,,2013-01-11 02:02:00,
2013-01-10 19:12:00,36.0,15.0,29.55,SSW,211,15.0,33.0,42,0.00,,,0.00,,2013-01-11 02:12:00,
2013-01-10 19:23:00,36.0,15.0,29.55,SSW,211,15.0,33.0,42,0.00,,,0.00,,2013-01-11 02:23:00,
2013-01-10 19:33:00,35.0,15.0,29.57,SW,228,12.0,29.0,44,0.00,,,0.00,,2013-01-11 02:33:00,
2013-01-10 19:43:00,35.0,15.0,29.57,SW,228,12.0,29.0,44,0.00,,,0.00,,2013-01-11 02:43:00,
2013-01-10 19:54:00,35.0,14.0,29.57,SW,227,17.0,24.0,42,0.00,,,0.00,,2013-01-11 02:54:00,
2013-01-10 20:02:00,35.0,15.0,29.57,SW,223,15.0,24.0,43,0.00,,,0.00,,2013-01-11 03:02:00,
2013-01-10 20:12:00,35.0,15.0,29.56,SW,217,16.0,28.0,44,0.00,,,0.00,,2013-01-11 03:12:00,
2013-01-10 20:33:00,35.0,16.0,29.54,SSW,192,21.0,31.0,45,0.00,,,0.00,,2013-01-11 03:33:00,
2013-01-10 20:43:00,35.0,16.0,29.54,SSW,192,21.0,31.0,45,0.00,,,0.00,,2013-01-11 03:43:00,
2013-01-10 20:53:00,35.0,16.0,29.54,WSW,238,16.0,27.0,45,0.00,,,0.00,,2013-01-11 03:53:00,
2013-01-10 21:02:00,35.0,16.0,29.54,SW,236,15.0,20.0,46,0.00,,,0.00,,2013-01-11 04:02:00,
2013-01-10 21:12:00,35.0,16.0,29.54,SW,226,15.0,22.0,46,0.00,,,0.00,,2013-01-11 04:12:00,
2013-01-10 21:22:00,35.0,16.0,29.54,SW,226,15.0,22.0,46,0.00,,,0.00,,2013-01-11 04:22:00,
2013-01-10 21:33:00,35.0,17.0,29.53,SSW,206,13.0,21.0,47,0.00,,,0.00,,2013-01-11 04:33:00,
2013-01-10 21:42:00,35.0,17.0,29.53,SSW,206,13.0,21.0,47,0.00,,,0.00,,2013-01-11 04:42:00,
2013-01-10 21:53:00,34.0,16.0,29.54,WSW,246,13.0,21.0,47,0.00,,,0.00,,2013-01-11 04:53:00,
2013-01-10 22:03:00,34.0,16.0,29.54,SSW,194,13.0,21.0,48,0.00,,,0.00,,2013-01-11 05:03:00,
2013-01-10 22:12:00,33.0,16.0,29.54,WSW,248,15.0,20.0,49,0.00,,,0.00,,2013-01-11 05:12:00,
2013-01-10 22:22:00,33.0,16.0,29.54,WSW,248,15.0,20.0,49,0.00,,,0.00,,2013-01-11 05:22:00,
2013-01-10 22:33:00,33.0,16.0,29.52,WSW,242,14.0,23.0,50,0.00,,,0.00,,2013-01-11 05:33:00,
2013-01-10 22:42:00,33.0,16.0,29.52,WSW,242,14.0,23.0,50,0.00,,,0.00,,2013-01-11 05:42:00,
2013-01-10 22:53:00,33.0,16.0,29.51,SSW,212,14.0,30.0,50,0.00,,,0.00,,2013-01-11 05:53:00,
2013-01-10 23:02:00,33.0,17.0,29.50,WSW,244,11.0,22.0,51,0.00,,,0.00,,2013-01-11 06:02:00,
2013-01-10 23:12:00,33.0,17.0,29.50,WSW,244,11.0,22.0,51,0.00,,,0.00,,2013-01-11 06:12:00,
2013-01-10 23:22:00,33.0,17.0,29.50,SW,232,10.0,18.0,52,0.00,,,0.00,,2013-01-11 06:22:00,
2013-01-10 23:32:00,32.0,17.0,29.50,SW,227,11.0,19.0,53,0.00,,,0.00,,2013-01-11 06:32:00,
2013-01-10 23:42:00,32.0,17.0,29.50,SW,227,11.0,19.0,53,0.00,,,0.00,,2013-01-11 06:42:00,
2013-01-10 23:52:00,32.0,18.0,29.50,SSW,195,8.0,15.0,55,0.00,,,0.00,,2013-01-11 06:52:00,